sensor_id;sensor_type;location;lat;lon;timestamp;temperature;humidity
65568;DHT22;52211;50.154;8.682;2022-09-12T00:01:28;17.50;64.60
65568;DHT22;52211;50.154;8.682;2022-09-12T00:03:59;17.50;64.70
65568;DHT22;52211;50.154;8.682;2022-09-12T00:06:35;17.50;64.80
65568;DHT22;52211;50.154;8.682;2022-09-12T00:09:11;17.50;65.00
65568;DHT22;52211;50.154;8.682;2022-09-12T00:11:41;17.40;65.10
65568;DHT22;52211;50.154;8.682;2022-09-12T00:14:11;17.40;64.90
65568;DHT22;52211;50.154;8.682;2022-09-12T00:16:40;17.40;65.00
65568;DHT22;52211;50.154;8.682;2022-09-12T00:19:11;17.40;65.00
65568;DHT22;52211;50.154;8.682;2022-09-12T00:21:39;17.30;65.10
65568;DHT22;52211;50.154;8.682;2022-09-12T00:24:07;17.30;65.00
65568;DHT22;52211;50.154;8.682;2022-09-12T00:26:34;17.30;65.20
65568;DHT22;52211;50.154;8.682;2022-09-12T00:29:04;17.20;65.10
65568;DHT22;52211;50.154;8.682;2022-09-12T00:31:33;17.20;65.10
65568;DHT22;52211;50.154;8.682;2022-09-12T00:34:03;17.20;65.20
65568;DHT22;52211;50.154;8.682;2022-09-12T00:36:32;17.20;65.30
65568;DHT22;52211;50.154;8.682;2022-09-12T00:39:01;17.20;65.20
65568;DHT22;52211;50.154;8.682;2022-09-12T00:41:38;17.20;65.20
65568;DHT22;52211;50.154;8.682;2022-09-12T00:49:24;17.10;65.50
65568;DHT22;52211;50.154;8.682;2022-09-12T00:51:58;17.10;65.30
65568;DHT22;52211;50.154;8.682;2022-09-12T00:57:17;17.00;65.80
65568;DHT22;52211;50.154;8.682;2022-09-12T00:59:56;17.00;65.40
65568;DHT22;52211;50.154;8.682;2022-09-12T01:02:45;17.00;65.60
65568;DHT22;52211;50.154;8.682;2022-09-12T01:05:16;17.00;66.10
65568;DHT22;52211;50.154;8.682;2022-09-12T01:07:46;17.00;65.40
65568;DHT22;52211;50.154;8.682;2022-09-12T01:10:15;17.00;65.50
65568;DHT22;52211;50.154;8.682;2022-09-12T01:12:47;16.90;65.40
65568;DHT22;52211;50.154;8.682;2022-09-12T01:15:14;16.90;65.40
65568;DHT22;52211;50.154;8.682;2022-09-12T01:23:03;16.90;65.50
65568;DHT22;52211;50.154;8.682;2022-09-12T01:26:02;16.90;65.60
65568;DHT22;52211;50.154;8.682;2022-09-12T01:34:45;16.80;65.80
65568;DHT22;52211;50.154;8.682;2022-09-12T01:37:51;16.70;65.30
65568;DHT22;52211;50.154;8.682;2022-09-12T01:43:55;16.70;66.10
65568;DHT22;52211;50.154;8.682;2022-09-12T01:49:55;16.60;66.00
65568;DHT22;52211;50.154;8.682;2022-09-12T01:52:54;16.60;65.70
65568;DHT22;52211;50.154;8.682;2022-09-12T01:55:33;16.60;66.30
65568;DHT22;52211;50.154;8.682;2022-09-12T01:58:17;16.60;65.80
65568;DHT22;52211;50.154;8.682;2022-09-12T02:01:10;16.50;66.10
65568;DHT22;52211;50.154;8.682;2022-09-12T02:03:50;16.50;65.90
65568;DHT22;52211;50.154;8.682;2022-09-12T02:06:21;16.50;66.20
65568;DHT22;52211;50.154;8.682;2022-09-12T02:09:21;16.50;66.10
65568;DHT22;52211;50.154;8.682;2022-09-12T02:11:52;16.50;66.20
65568;DHT22;52211;50.154;8.682;2022-09-12T02:14:50;16.50;66.10
65568;DHT22;52211;50.154;8.682;2022-09-12T02:17:23;16.40;66.30
65568;DHT22;52211;50.154;8.682;2022-09-12T02:22:33;16.40;66.30
65568;DHT22;52211;50.154;8.682;2022-09-12T02:25:06;16.40;66.20
65568;DHT22;52211;50.154;8.682;2022-09-12T02:27:41;16.30;66.30
65568;DHT22;52211;50.154;8.682;2022-09-12T02:30:12;16.30;66.30
65568;DHT22;52211;50.154;8.682;2022-09-12T02:32:57;16.30;66.20
65568;DHT22;52211;50.154;8.682;2022-09-12T02:38:12;16.30;66.80
65568;DHT22;52211;50.154;8.682;2022-09-12T02:40:45;16.30;66.50
65568;DHT22;52211;50.154;8.682;2022-09-12T02:43:15;16.30;66.40
65568;DHT22;52211;50.154;8.682;2022-09-12T02:45:44;16.30;66.40
65568;DHT22;52211;50.154;8.682;2022-09-12T02:48:18;16.30;66.50
65568;DHT22;52211;50.154;8.682;2022-09-12T02:50:54;16.30;66.70
65568;DHT22;52211;50.154;8.682;2022-09-12T02:53:27;16.30;66.50
65568;DHT22;52211;50.154;8.682;2022-09-12T02:55:57;16.20;66.40
65568;DHT22;52211;50.154;8.682;2022-09-12T02:58:26;16.20;66.40
65568;DHT22;52211;50.154;8.682;2022-09-12T03:07:04;16.20;66.40
65568;DHT22;52211;50.154;8.682;2022-09-12T03:15:42;16.10;67.00
65568;DHT22;52211;50.154;8.682;2022-09-12T03:21:18;16.10;66.70
65568;DHT22;52211;50.154;8.682;2022-09-12T03:26:56;16.00;66.70
65568;DHT22;52211;50.154;8.682;2022-09-12T03:29:29;16.00;66.60
65568;DHT22;52211;50.154;8.682;2022-09-12T03:31:57;16.00;66.70
65568;DHT22;52211;50.154;8.682;2022-09-12T03:34:28;16.00;66.70
65568;DHT22;52211;50.154;8.682;2022-09-12T03:36:57;16.00;66.80
65568;DHT22;52211;50.154;8.682;2022-09-12T03:39:29;16.00;66.90
65568;DHT22;52211;50.154;8.682;2022-09-12T03:41:56;16.00;67.00
65568;DHT22;52211;50.154;8.682;2022-09-12T03:44:23;15.90;66.80
65568;DHT22;52211;50.154;8.682;2022-09-12T03:46:52;16.00;66.80
65568;DHT22;52211;50.154;8.682;2022-09-12T03:49:24;15.90;66.80
65568;DHT22;52211;50.154;8.682;2022-09-12T03:51:50;15.90;67.00
65568;DHT22;52211;50.154;8.682;2022-09-12T03:54:21;15.90;66.90
65568;DHT22;52211;50.154;8.682;2022-09-12T03:56:51;15.90;67.00
65568;DHT22;52211;50.154;8.682;2022-09-12T03:59:19;15.90;67.00
65568;DHT22;52211;50.154;8.682;2022-09-12T04:01:49;15.90;67.00
65568;DHT22;52211;50.154;8.682;2022-09-12T04:04:20;15.90;67.10
65568;DHT22;52211;50.154;8.682;2022-09-12T04:06:47;15.90;67.10
65568;DHT22;52211;50.154;8.682;2022-09-12T04:09:14;15.80;67.00
65568;DHT22;52211;50.154;8.682;2022-09-12T04:11:40;15.80;67.10
65568;DHT22;52211;50.154;8.682;2022-09-12T04:14:07;15.80;67.10
65568;DHT22;52211;50.154;8.682;2022-09-12T04:16:39;15.80;67.10
65568;DHT22;52211;50.154;8.682;2022-09-12T04:19:05;15.80;67.10
65568;DHT22;52211;50.154;8.682;2022-09-12T04:21:32;15.80;67.20
65568;DHT22;52211;50.154;8.682;2022-09-12T04:23:59;15.80;67.20
65568;DHT22;52211;50.154;8.682;2022-09-12T04:26:28;15.80;67.20
65568;DHT22;52211;50.154;8.682;2022-09-12T04:28:57;15.70;67.20
65568;DHT22;52211;50.154;8.682;2022-09-12T04:31:31;15.80;67.20
65568;DHT22;52211;50.154;8.682;2022-09-12T04:34:00;15.70;67.30
65568;DHT22;52211;50.154;8.682;2022-09-12T04:36:28;15.70;67.20
65568;DHT22;52211;50.154;8.682;2022-09-12T04:38:57;15.70;67.20
65568;DHT22;52211;50.154;8.682;2022-09-12T04:41:33;15.70;67.20
65568;DHT22;52211;50.154;8.682;2022-09-12T04:44:04;15.70;68.00
65568;DHT22;52211;50.154;8.682;2022-09-12T04:46:35;15.60;67.30
65568;DHT22;52211;50.154;8.682;2022-09-12T04:49:06;15.70;67.30
65568;DHT22;52211;50.154;8.682;2022-09-12T04:51:35;15.60;67.30
65568;DHT22;52211;50.154;8.682;2022-09-12T04:54:09;15.60;67.30
65568;DHT22;52211;50.154;8.682;2022-09-12T04:56:43;15.60;67.40
65568;DHT22;52211;50.154;8.682;2022-09-12T04:59:13;15.60;67.30
65568;DHT22;52211;50.154;8.682;2022-09-12T05:01:45;15.60;67.40
65568;DHT22;52211;50.154;8.682;2022-09-12T05:04:16;15.60;67.50
65568;DHT22;52211;50.154;8.682;2022-09-12T05:06:45;15.60;67.50
65568;DHT22;52211;50.154;8.682;2022-09-12T05:09:13;15.50;67.60
65568;DHT22;52211;50.154;8.682;2022-09-12T05:11:47;15.60;67.60
65568;DHT22;52211;50.154;8.682;2022-09-12T05:14:32;15.50;67.60
65568;DHT22;52211;50.154;8.682;2022-09-12T05:17:00;15.50;67.60
65568;DHT22;52211;50.154;8.682;2022-09-12T05:19:30;15.50;67.70
65568;DHT22;52211;50.154;8.682;2022-09-12T05:21:59;15.50;67.80
65568;DHT22;52211;50.154;8.682;2022-09-12T05:24:27;15.50;67.80
65568;DHT22;52211;50.154;8.682;2022-09-12T05:26:58;15.50;67.80
65568;DHT22;52211;50.154;8.682;2022-09-12T05:29:32;15.50;67.80
65568;DHT22;52211;50.154;8.682;2022-09-12T05:32:02;15.50;67.90
65568;DHT22;52211;50.154;8.682;2022-09-12T05:34:31;15.50;67.80
65568;DHT22;52211;50.154;8.682;2022-09-12T05:36:58;15.60;67.90
65568;DHT22;52211;50.154;8.682;2022-09-12T05:39:25;15.50;67.80
65568;DHT22;52211;50.154;8.682;2022-09-12T05:41:52;15.50;67.80
65568;DHT22;52211;50.154;8.682;2022-09-12T05:44:21;15.60;67.90
65568;DHT22;52211;50.154;8.682;2022-09-12T05:46:50;15.60;67.90
65568;DHT22;52211;50.154;8.682;2022-09-12T05:49:21;15.60;67.90
65568;DHT22;52211;50.154;8.682;2022-09-12T05:51:50;15.60;68.10
65568;DHT22;52211;50.154;8.682;2022-09-12T05:54:18;15.60;68.10
65568;DHT22;52211;50.154;8.682;2022-09-12T05:56:50;15.50;68.10
65568;DHT22;52211;50.154;8.682;2022-09-12T05:59:19;15.60;68.10
65568;DHT22;52211;50.154;8.682;2022-09-12T06:01:51;15.60;68.30
65568;DHT22;52211;50.154;8.682;2022-09-12T06:04:18;15.60;68.30
65568;DHT22;52211;50.154;8.682;2022-09-12T06:06:45;15.60;68.30
65568;DHT22;52211;50.154;8.682;2022-09-12T06:09:14;15.70;68.40
65568;DHT22;52211;50.154;8.682;2022-09-12T06:11:44;15.70;68.40
65568;DHT22;52211;50.154;8.682;2022-09-12T06:14:15;15.70;68.50
65568;DHT22;52211;50.154;8.682;2022-09-12T06:16:45;15.70;68.50
65568;DHT22;52211;50.154;8.682;2022-09-12T06:19:19;15.70;68.50
65568;DHT22;52211;50.154;8.682;2022-09-12T06:21:49;15.80;68.70
65568;DHT22;52211;50.154;8.682;2022-09-12T06:24:20;15.80;68.50
65568;DHT22;52211;50.154;8.682;2022-09-12T06:26:48;15.80;68.50
65568;DHT22;52211;50.154;8.682;2022-09-12T06:29:15;15.80;68.60
65568;DHT22;52211;50.154;8.682;2022-09-12T06:31:44;15.80;68.60
65568;DHT22;52211;50.154;8.682;2022-09-12T06:34:15;15.90;68.70
65568;DHT22;52211;50.154;8.682;2022-09-12T06:36:48;15.90;68.80
65568;DHT22;52211;50.154;8.682;2022-09-12T06:39:19;16.00;68.90
65568;DHT22;52211;50.154;8.682;2022-09-12T06:41:49;16.00;68.80
65568;DHT22;52211;50.154;8.682;2022-09-12T06:44:21;16.10;68.70
65568;DHT22;52211;50.154;8.682;2022-09-12T06:46:48;16.10;68.90
65568;DHT22;52211;50.154;8.682;2022-09-12T06:49:20;16.20;68.70
65568;DHT22;52211;50.154;8.682;2022-09-12T06:51:48;16.20;68.70
65568;DHT22;52211;50.154;8.682;2022-09-12T06:54:17;16.20;68.70
65568;DHT22;52211;50.154;8.682;2022-09-12T06:56:45;16.30;68.80
65568;DHT22;52211;50.154;8.682;2022-09-12T06:59:12;16.40;68.70
65568;DHT22;52211;50.154;8.682;2022-09-12T07:01:42;16.40;68.70
65568;DHT22;52211;50.154;8.682;2022-09-12T07:04:09;16.40;68.70
65568;DHT22;52211;50.154;8.682;2022-09-12T07:06:39;16.50;68.80
65568;DHT22;52211;50.154;8.682;2022-09-12T07:09:14;16.50;68.80
65568;DHT22;52211;50.154;8.682;2022-09-12T07:11:46;16.60;68.90
65568;DHT22;52211;50.154;8.682;2022-09-12T07:14:13;16.60;68.70
65568;DHT22;52211;50.154;8.682;2022-09-12T07:16:41;16.70;68.80
65568;DHT22;52211;50.154;8.682;2022-09-12T07:19:08;16.70;68.80
65568;DHT22;52211;50.154;8.682;2022-09-12T07:21:39;16.80;68.90
65568;DHT22;52211;50.154;8.682;2022-09-12T07:24:09;16.80;68.80
65568;DHT22;52211;50.154;8.682;2022-09-12T07:26:38;16.90;68.90
65568;DHT22;52211;50.154;8.682;2022-09-12T07:29:13;17.00;68.70
65568;DHT22;52211;50.154;8.682;2022-09-12T07:32:03;17.00;68.70
65568;DHT22;52211;50.154;8.682;2022-09-12T07:34:31;17.10;68.60
65568;DHT22;52211;50.154;8.682;2022-09-12T07:37:00;17.20;68.70
65568;DHT22;52211;50.154;8.682;2022-09-12T07:39:28;17.20;68.70
65568;DHT22;52211;50.154;8.682;2022-09-12T07:41:55;17.30;68.70
65568;DHT22;52211;50.154;8.682;2022-09-12T07:44:22;17.30;68.60
65568;DHT22;52211;50.154;8.682;2022-09-12T07:46:52;17.40;68.60
65568;DHT22;52211;50.154;8.682;2022-09-12T07:49:24;17.50;68.70
65568;DHT22;52211;50.154;8.682;2022-09-12T07:51:53;17.50;68.60
65568;DHT22;52211;50.154;8.682;2022-09-12T07:54:22;17.60;68.60
65568;DHT22;52211;50.154;8.682;2022-09-12T07:56:51;17.70;68.60
65568;DHT22;52211;50.154;8.682;2022-09-12T07:59:19;17.70;68.50
65568;DHT22;52211;50.154;8.682;2022-09-12T08:02:08;17.80;68.50
65568;DHT22;52211;50.154;8.682;2022-09-12T08:04:42;17.90;68.40
65568;DHT22;52211;50.154;8.682;2022-09-12T08:07:11;18.00;68.40
65568;DHT22;52211;50.154;8.682;2022-09-12T08:09:38;18.10;68.40
65568;DHT22;52211;50.154;8.682;2022-09-12T08:12:07;18.10;68.40
65568;DHT22;52211;50.154;8.682;2022-09-12T08:14:34;18.20;68.40
65568;DHT22;52211;50.154;8.682;2022-09-12T08:17:03;18.30;68.40
65568;DHT22;52211;50.154;8.682;2022-09-12T08:19:32;18.30;68.40
65568;DHT22;52211;50.154;8.682;2022-09-12T08:22:02;18.40;68.30
65568;DHT22;52211;50.154;8.682;2022-09-12T08:24:29;18.50;68.20
65568;DHT22;52211;50.154;8.682;2022-09-12T08:26:58;18.60;68.10
65568;DHT22;52211;50.154;8.682;2022-09-12T08:29:28;18.70;68.10
65568;DHT22;52211;50.154;8.682;2022-09-12T08:31:54;18.80;68.00
65568;DHT22;52211;50.154;8.682;2022-09-12T08:34:23;18.80;67.90
65568;DHT22;52211;50.154;8.682;2022-09-12T08:36:51;18.90;67.90
65568;DHT22;52211;50.154;8.682;2022-09-12T08:39:24;19.00;67.90
65568;DHT22;52211;50.154;8.682;2022-09-12T08:42:02;19.10;67.90
65568;DHT22;52211;50.154;8.682;2022-09-12T08:52:57;19.50;67.70
65568;DHT22;52211;50.154;8.682;2022-09-12T08:55:40;19.60;67.60
65568;DHT22;52211;50.154;8.682;2022-09-12T08:58:20;19.70;67.50
65568;DHT22;52211;50.154;8.682;2022-09-12T09:03:38;19.90;67.40
65568;DHT22;52211;50.154;8.682;2022-09-12T09:06:34;20.00;67.30
65568;DHT22;52211;50.154;8.682;2022-09-12T09:15:50;20.40;66.60
65568;DHT22;52211;50.154;8.682;2022-09-12T09:18:32;20.50;66.30
65568;DHT22;52211;50.154;8.682;2022-09-12T09:21:21;20.60;66.40
65568;DHT22;52211;50.154;8.682;2022-09-12T09:24:04;20.80;66.20
65568;DHT22;52211;50.154;8.682;2022-09-12T09:26:49;20.90;66.30
65568;DHT22;52211;50.154;8.682;2022-09-12T09:29:36;21.10;66.20
65568;DHT22;52211;50.154;8.682;2022-09-12T09:32:16;21.20;66.00
65568;DHT22;52211;50.154;8.682;2022-09-12T09:34:44;21.30;65.50
65568;DHT22;52211;50.154;8.682;2022-09-12T09:37:18;21.50;65.70
65568;DHT22;52211;50.154;8.682;2022-09-12T09:40:23;21.60;65.10
65568;DHT22;52211;50.154;8.682;2022-09-12T09:43:26;21.70;64.70
65568;DHT22;52211;50.154;8.682;2022-09-12T09:45:55;21.90;65.00
65568;DHT22;52211;50.154;8.682;2022-09-12T09:48:31;22.00;64.80
65568;DHT22;52211;50.154;8.682;2022-09-12T09:51:05;22.10;64.30
65568;DHT22;52211;50.154;8.682;2022-09-12T09:53:40;22.30;64.20
65568;DHT22;52211;50.154;8.682;2022-09-12T09:56:28;22.40;63.90
65568;DHT22;52211;50.154;8.682;2022-09-12T09:59:06;22.50;63.30
65568;DHT22;52211;50.154;8.682;2022-09-12T10:01:54;22.60;63.60
65568;DHT22;52211;50.154;8.682;2022-09-12T10:04:30;22.70;62.80
65568;DHT22;52211;50.154;8.682;2022-09-12T10:07:19;22.80;63.20
65568;DHT22;52211;50.154;8.682;2022-09-12T10:10:17;22.90;62.70
65568;DHT22;52211;50.154;8.682;2022-09-12T10:12:48;23.00;62.80
65568;DHT22;52211;50.154;8.682;2022-09-12T10:15:22;23.10;62.90
65568;DHT22;52211;50.154;8.682;2022-09-12T10:17:57;23.20;62.30
65568;DHT22;52211;50.154;8.682;2022-09-12T10:20:39;23.30;62.50
65568;DHT22;52211;50.154;8.682;2022-09-12T10:26:07;23.50;61.20
65568;DHT22;52211;50.154;8.682;2022-09-12T10:28:44;23.60;61.50
65568;DHT22;52211;50.154;8.682;2022-09-12T10:31:23;23.70;61.00
65568;DHT22;52211;50.154;8.682;2022-09-12T10:34:00;23.70;60.60
65568;DHT22;52211;50.154;8.682;2022-09-12T10:36:37;23.80;60.30
65568;DHT22;52211;50.154;8.682;2022-09-12T10:39:11;23.90;60.10
65568;DHT22;52211;50.154;8.682;2022-09-12T10:41:45;24.00;60.60
65568;DHT22;52211;50.154;8.682;2022-09-12T10:44:29;24.10;60.40
65568;DHT22;52211;50.154;8.682;2022-09-12T10:47:19;24.10;59.90
65568;DHT22;52211;50.154;8.682;2022-09-12T10:50:24;24.30;59.40
65568;DHT22;52211;50.154;8.682;2022-09-12T10:52:53;24.40;59.40
65568;DHT22;52211;50.154;8.682;2022-09-12T10:55:27;24.50;59.90
65568;DHT22;52211;50.154;8.682;2022-09-12T11:01:25;24.80;59.70
65568;DHT22;52211;50.154;8.682;2022-09-12T11:19:01;25.50;57.50
65568;DHT22;52211;50.154;8.682;2022-09-12T11:25:32;25.70;57.20
65568;DHT22;52211;50.154;8.682;2022-09-12T11:28:22;25.90;56.80
65568;DHT22;52211;50.154;8.682;2022-09-12T11:33:49;26.20;57.10
65568;DHT22;52211;50.154;8.682;2022-09-12T11:41:56;26.60;55.10
65568;DHT22;52211;50.154;8.682;2022-09-12T11:44:47;26.70;54.90
65568;DHT22;52211;50.154;8.682;2022-09-12T11:47:34;26.80;53.90
65568;DHT22;52211;50.154;8.682;2022-09-12T11:50:17;26.80;55.00
65568;DHT22;52211;50.154;8.682;2022-09-12T11:52:52;26.90;54.40
65568;DHT22;52211;50.154;8.682;2022-09-12T11:55:35;27.00;54.10
65568;DHT22;52211;50.154;8.682;2022-09-12T11:58:27;27.20;54.30
65568;DHT22;52211;50.154;8.682;2022-09-12T12:01:10;27.20;53.50
65568;DHT22;52211;50.154;8.682;2022-09-12T12:04:15;27.30;52.60
65568;DHT22;52211;50.154;8.682;2022-09-12T12:06:51;27.40;53.50
65568;DHT22;52211;50.154;8.682;2022-09-12T12:09:25;27.40;53.10
65568;DHT22;52211;50.154;8.682;2022-09-12T12:11:54;27.50;53.30
65568;DHT22;52211;50.154;8.682;2022-09-12T12:17:16;27.80;52.10
65568;DHT22;52211;50.154;8.682;2022-09-12T12:19:57;27.90;51.90
65568;DHT22;52211;50.154;8.682;2022-09-12T12:22:33;28.10;51.80
65568;DHT22;52211;50.154;8.682;2022-09-12T12:25:24;28.20;52.70
65568;DHT22;52211;50.154;8.682;2022-09-12T12:28:06;28.30;51.30
65568;DHT22;52211;50.154;8.682;2022-09-12T12:33:50;28.80;51.20
65568;DHT22;52211;50.154;8.682;2022-09-12T12:46:23;29.00;48.40
65568;DHT22;52211;50.154;8.682;2022-09-12T12:49:08;29.10;48.90
65568;DHT22;52211;50.154;8.682;2022-09-12T13:10:53;30.60;47.30
65568;DHT22;52211;50.154;8.682;2022-09-12T13:13:49;31.00;47.30
65568;DHT22;52211;50.154;8.682;2022-09-12T13:16:38;31.40;48.00
65568;DHT22;52211;50.154;8.682;2022-09-12T13:19:32;31.90;47.40
65568;DHT22;52211;50.154;8.682;2022-09-12T13:22:08;32.40;47.10
65568;DHT22;52211;50.154;8.682;2022-09-12T13:24:47;32.80;45.80
65568;DHT22;52211;50.154;8.682;2022-09-12T13:27:24;33.00;44.70
65568;DHT22;52211;50.154;8.682;2022-09-12T13:30:13;33.30;43.90
65568;DHT22;52211;50.154;8.682;2022-09-12T13:32:43;33.60;43.80
65568;DHT22;52211;50.154;8.682;2022-09-12T13:35:25;33.90;44.30
65568;DHT22;52211;50.154;8.682;2022-09-12T13:43:48;34.80;42.10
65568;DHT22;52211;50.154;8.682;2022-09-12T13:46:21;35.10;42.70
65568;DHT22;52211;50.154;8.682;2022-09-12T13:48:59;35.30;42.00
65568;DHT22;52211;50.154;8.682;2022-09-12T13:51:32;35.40;40.70
65568;DHT22;52211;50.154;8.682;2022-09-12T13:54:02;35.70;40.60
65568;DHT22;52211;50.154;8.682;2022-09-12T13:56:32;35.80;41.50
65568;DHT22;52211;50.154;8.682;2022-09-12T13:59:12;36.00;40.40
65568;DHT22;52211;50.154;8.682;2022-09-12T14:01:42;36.20;39.80
65568;DHT22;52211;50.154;8.682;2022-09-12T14:04:25;36.40;38.70
65568;DHT22;52211;50.154;8.682;2022-09-12T14:09:44;36.70;39.40
65568;DHT22;52211;50.154;8.682;2022-09-12T14:12:30;36.80;38.50
65568;DHT22;52211;50.154;8.682;2022-09-12T14:15:01;36.90;37.50
65568;DHT22;52211;50.154;8.682;2022-09-12T14:17:36;36.80;37.70
65568;DHT22;52211;50.154;8.682;2022-09-12T14:20:11;36.60;36.10
65568;DHT22;52211;50.154;8.682;2022-09-12T14:22:40;36.20;36.30
65568;DHT22;52211;50.154;8.682;2022-09-12T14:25:23;35.80;36.50
65568;DHT22;52211;50.154;8.682;2022-09-12T14:27:58;35.40;36.60
65568;DHT22;52211;50.154;8.682;2022-09-12T14:30:34;35.20;37.20
65568;DHT22;52211;50.154;8.682;2022-09-12T14:33:17;35.10;37.00
65568;DHT22;52211;50.154;8.682;2022-09-12T14:36:07;35.10;36.70
65568;DHT22;52211;50.154;8.682;2022-09-12T14:42:17;35.60;37.40
65568;DHT22;52211;50.154;8.682;2022-09-12T14:45:02;35.80;37.00
65568;DHT22;52211;50.154;8.682;2022-09-12T14:47:41;35.90;35.50
65568;DHT22;52211;50.154;8.682;2022-09-12T14:50:27;36.10;36.60
65568;DHT22;52211;50.154;8.682;2022-09-12T14:56:12;36.50;34.90
65568;DHT22;52211;50.154;8.682;2022-09-12T14:58:41;36.50;35.50
65568;DHT22;52211;50.154;8.682;2022-09-12T15:01:31;36.60;35.80
65568;DHT22;52211;50.154;8.682;2022-09-12T15:04:00;36.50;34.50
65568;DHT22;52211;50.154;8.682;2022-09-12T15:06:33;36.40;35.00
65568;DHT22;52211;50.154;8.682;2022-09-12T15:09:11;36.20;35.20
65568;DHT22;52211;50.154;8.682;2022-09-12T15:11:39;36.00;33.30
65568;DHT22;52211;50.154;8.682;2022-09-12T15:14:11;35.70;33.90
65568;DHT22;52211;50.154;8.682;2022-09-12T15:16:42;35.20;33.30
65568;DHT22;52211;50.154;8.682;2022-09-12T15:19:08;34.90;34.00
65568;DHT22;52211;50.154;8.682;2022-09-12T15:21:35;34.60;34.10
65568;DHT22;52211;50.154;8.682;2022-09-12T15:24:04;34.30;34.40
65568;DHT22;52211;50.154;8.682;2022-09-12T15:26:34;34.00;34.20
65568;DHT22;52211;50.154;8.682;2022-09-12T15:29:00;33.80;34.40
65568;DHT22;52211;50.154;8.682;2022-09-12T15:31:31;33.60;34.40
65568;DHT22;52211;50.154;8.682;2022-09-12T15:34:01;33.40;34.20
65568;DHT22;52211;50.154;8.682;2022-09-12T15:36:28;33.20;34.40
65568;DHT22;52211;50.154;8.682;2022-09-12T15:38:55;33.10;34.80
65568;DHT22;52211;50.154;8.682;2022-09-12T15:41:31;33.00;34.90
65568;DHT22;52211;50.154;8.682;2022-09-12T15:44:03;32.90;34.80
65568;DHT22;52211;50.154;8.682;2022-09-12T15:46:33;32.80;34.80
65568;DHT22;52211;50.154;8.682;2022-09-12T15:49:05;32.70;34.70
65568;DHT22;52211;50.154;8.682;2022-09-12T15:51:35;32.60;34.30
65568;DHT22;52211;50.154;8.682;2022-09-12T15:54:05;32.40;34.50
65568;DHT22;52211;50.154;8.682;2022-09-12T15:56:42;32.20;34.20
65568;DHT22;52211;50.154;8.682;2022-09-12T15:59:11;31.90;34.10
65568;DHT22;52211;50.154;8.682;2022-09-12T16:01:39;31.60;34.30
65568;DHT22;52211;50.154;8.682;2022-09-12T16:06:50;31.20;33.90
65568;DHT22;52211;50.154;8.682;2022-09-12T16:09:17;31.00;34.40
65568;DHT22;52211;50.154;8.682;2022-09-12T16:11:47;31.00;34.60
65568;DHT22;52211;50.154;8.682;2022-09-12T16:14:19;30.90;34.80
65568;DHT22;52211;50.154;8.682;2022-09-12T16:16:53;30.90;35.10
65568;DHT22;52211;50.154;8.682;2022-09-12T16:19:24;30.90;35.20
65568;DHT22;52211;50.154;8.682;2022-09-12T16:21:51;30.90;35.40
65568;DHT22;52211;50.154;8.682;2022-09-12T16:24:18;30.80;35.40
65568;DHT22;52211;50.154;8.682;2022-09-12T16:26:44;30.70;35.30
65568;DHT22;52211;50.154;8.682;2022-09-12T16:29:11;30.60;35.30
65568;DHT22;52211;50.154;8.682;2022-09-12T16:31:39;30.40;35.30
65568;DHT22;52211;50.154;8.682;2022-09-12T16:34:11;30.30;35.40
65568;DHT22;52211;50.154;8.682;2022-09-12T16:36:39;30.10;35.30
65568;DHT22;52211;50.154;8.682;2022-09-12T16:39:05;29.90;35.60
65568;DHT22;52211;50.154;8.682;2022-09-12T16:41:34;29.70;35.80
65568;DHT22;52211;50.154;8.682;2022-09-12T16:44:01;29.50;35.80
65568;DHT22;52211;50.154;8.682;2022-09-12T16:46:31;29.30;35.90
65568;DHT22;52211;50.154;8.682;2022-09-12T16:49:01;29.20;36.00
65568;DHT22;52211;50.154;8.682;2022-09-12T16:51:33;29.00;36.10
65568;DHT22;52211;50.154;8.682;2022-09-12T16:54:14;28.80;36.10
65568;DHT22;52211;50.154;8.682;2022-09-12T16:56:43;28.60;36.30
65568;DHT22;52211;50.154;8.682;2022-09-12T16:59:10;28.50;36.50
65568;DHT22;52211;50.154;8.682;2022-09-12T17:01:42;28.30;37.30
65568;DHT22;52211;50.154;8.682;2022-09-12T17:04:13;28.20;36.90
65568;DHT22;52211;50.154;8.682;2022-09-12T17:06:40;28.10;37.00
65568;DHT22;52211;50.154;8.682;2022-09-12T17:09:10;27.90;37.10
65568;DHT22;52211;50.154;8.682;2022-09-12T17:11:46;27.80;37.30
65568;DHT22;52211;50.154;8.682;2022-09-12T17:14:17;27.60;37.40
65568;DHT22;52211;50.154;8.682;2022-09-12T17:16:47;27.50;37.50
65568;DHT22;52211;50.154;8.682;2022-09-12T17:19:23;27.30;37.60
65568;DHT22;52211;50.154;8.682;2022-09-12T17:21:59;27.20;37.90
65568;DHT22;52211;50.154;8.682;2022-09-12T17:24:29;27.10;38.20
65568;DHT22;52211;50.154;8.682;2022-09-12T17:26:56;27.00;38.20
65568;DHT22;52211;50.154;8.682;2022-09-12T17:29:25;26.90;38.40
65568;DHT22;52211;50.154;8.682;2022-09-12T17:31:52;26.80;38.50
65568;DHT22;52211;50.154;8.682;2022-09-12T17:34:20;26.70;38.80
65568;DHT22;52211;50.154;8.682;2022-09-12T17:36:51;26.50;38.80
65568;DHT22;52211;50.154;8.682;2022-09-12T17:39:24;26.50;39.20
65568;DHT22;52211;50.154;8.682;2022-09-12T17:41:51;26.30;39.20
65568;DHT22;52211;50.154;8.682;2022-09-12T17:44:20;26.20;39.30
65568;DHT22;52211;50.154;8.682;2022-09-12T17:46:52;26.10;39.60
65568;DHT22;52211;50.154;8.682;2022-09-12T17:49:21;26.00;39.80
65568;DHT22;52211;50.154;8.682;2022-09-12T17:51:53;25.90;39.90
65568;DHT22;52211;50.154;8.682;2022-09-12T17:54:21;25.80;40.00
65568;DHT22;52211;50.154;8.682;2022-09-12T17:56:49;25.60;40.20
65568;DHT22;52211;50.154;8.682;2022-09-12T17:59:23;25.50;40.30
65568;DHT22;52211;50.154;8.682;2022-09-12T18:01:50;25.40;40.50
65568;DHT22;52211;50.154;8.682;2022-09-12T18:04:35;25.30;40.50
65568;DHT22;52211;50.154;8.682;2022-09-12T18:07:02;25.20;40.60
65568;DHT22;52211;50.154;8.682;2022-09-12T18:09:29;25.10;40.70
65568;DHT22;52211;50.154;8.682;2022-09-12T18:11:57;25.00;40.80
65568;DHT22;52211;50.154;8.682;2022-09-12T18:14:24;24.90;41.00
65568;DHT22;52211;50.154;8.682;2022-09-12T18:16:53;24.80;41.10
65568;DHT22;52211;50.154;8.682;2022-09-12T18:19:23;24.80;41.40
65568;DHT22;52211;50.154;8.682;2022-09-12T18:21:53;24.70;41.50
65568;DHT22;52211;50.154;8.682;2022-09-12T18:24:21;24.60;41.70
65568;DHT22;52211;50.154;8.682;2022-09-12T18:26:51;24.50;41.90
65568;DHT22;52211;50.154;8.682;2022-09-12T18:29:17;24.40;42.10
65568;DHT22;52211;50.154;8.682;2022-09-12T18:31:45;24.30;42.20
65568;DHT22;52211;50.154;8.682;2022-09-12T18:34:15;24.30;42.40
65568;DHT22;52211;50.154;8.682;2022-09-12T18:36:47;24.20;42.70
65568;DHT22;52211;50.154;8.682;2022-09-12T18:39:19;24.10;42.90
65568;DHT22;52211;50.154;8.682;2022-09-12T18:41:55;24.00;43.20
65568;DHT22;52211;50.154;8.682;2022-09-12T18:44:22;23.90;43.20